createdAt,value
2017-12-10T00:02:23.885Z,99.90
2017-12-10T00:04:55.129Z,99.90
2017-12-10T00:07:27.484Z,99.90
2017-12-10T00:09:57.964Z,99.90
2017-12-10T00:12:28.870Z,99.90
2017-12-10T00:15:00.962Z,99.90
2017-12-10T00:17:31.847Z,99.90
2017-12-10T00:20:02.298Z,99.90
2017-12-10T00:22:33.509Z,99.90
2017-12-10T00:25:04.365Z,99.90
2017-12-10T00:27:35.422Z,99.90
2017-12-10T00:30:07.755Z,99.90
2017-12-10T00:32:38.556Z,99.90
2017-12-10T00:35:09.334Z,99.90
2017-12-10T00:37:41.018Z,99.90
2017-12-10T00:40:12.614Z,99.90
2017-12-10T00:42:43.358Z,99.90
2017-12-10T00:45:13.831Z,99.90
2017-12-10T00:47:46.317Z,99.90
2017-12-10T00:50:17.556Z,99.90
2017-12-10T00:52:49.108Z,99.90
2017-12-10T00:55:21.498Z,99.90
2017-12-10T00:57:52.250Z,99.90
2017-12-10T01:00:22.739Z,99.90
2017-12-10T01:02:55.302Z,99.90
2017-12-10T01:05:25.781Z,99.90
2017-12-10T01:07:57.299Z,99.90
2017-12-10T01:10:28.564Z,99.90
2017-12-10T01:12:59.388Z,99.90
2017-12-10T01:15:30.944Z,99.90
2017-12-10T01:18:01.404Z,99.90
2017-12-10T01:20:31.892Z,99.90
2017-12-10T01:23:04.333Z,99.90
2017-12-10T01:25:35.197Z,99.90
2017-12-10T01:28:06.422Z,99.90
2017-12-10T01:30:36.908Z,99.90
2017-12-10T01:33:08.668Z,99.90
2017-12-10T01:35:39.148Z,99.90
2017-12-10T01:38:10.436Z,99.90
2017-12-10T01:40:40.934Z,99.90
2017-12-10T01:43:13.496Z,99.90
2017-12-10T01:45:44.311Z,99.90
2017-12-10T01:48:14.793Z,99.90
2017-12-10T01:50:46.121Z,99.90
2017-12-10T01:53:17.315Z,99.90
2017-12-10T01:55:48.053Z,99.90
2017-12-10T01:58:19.921Z,99.90
2017-12-10T02:00:50.685Z,99.90
2017-12-10T02:03:22.819Z,99.90
2017-12-10T02:05:53.329Z,99.90
2017-12-10T02:08:24.074Z,99.90
2017-12-10T02:10:54.567Z,99.90
2017-12-10T02:13:25.491Z,99.90
2017-12-10T02:15:56.736Z,99.90
2017-12-10T02:18:29.549Z,99.90
2017-12-10T02:21:00.377Z,99.90
2017-12-10T02:23:32.577Z,99.90
2017-12-10T02:26:05.288Z,99.90
2017-12-10T02:28:35.838Z,99.90
2017-12-10T02:31:07.113Z,99.90
2017-12-10T02:33:38.675Z,99.90
2017-12-10T02:36:10.246Z,99.90
2017-12-10T02:38:41.371Z,99.90
2017-12-10T02:41:12.213Z,99.80
2017-12-10T02:43:43.374Z,99.90
2017-12-10T02:46:15.088Z,99.80
2017-12-10T02:48:45.780Z,99.50
2017-12-10T02:51:16.755Z,99.70
2017-12-10T02:53:47.489Z,99.80
2017-12-10T02:56:18.644Z,99.50
2017-12-10T02:58:49.126Z,99.60
2017-12-10T03:01:19.660Z,98.80
2017-12-10T03:03:52.338Z,98.80
2017-12-10T03:06:24.118Z,99.00
2017-12-10T03:08:55.390Z,98.90
2017-12-10T03:11:26.527Z,98.90
2017-12-10T03:13:57.970Z,98.40
2017-12-10T03:16:29.602Z,98.70
2017-12-10T03:19:01.905Z,97.60
2017-12-10T03:21:34.760Z,98.00
2017-12-10T03:24:06.267Z,98.00
2017-12-10T03:26:37.145Z,98.00
2017-12-10T03:29:09.365Z,97.70
2017-12-10T03:31:41.281Z,97.70
2017-12-10T03:34:13.809Z,97.70
2017-12-10T03:36:45.688Z,97.70
2017-12-10T03:39:16.364Z,97.20
2017-12-10T03:41:47.374Z,97.20
2017-12-10T03:44:20.115Z,97.50
2017-12-10T03:46:52.823Z,97.50
2017-12-10T03:49:24.163Z,97.50
2017-12-10T03:51:55.507Z,97.30
2017-12-10T03:54:26.768Z,97.60
2017-12-10T03:56:59.384Z,98.50
2017-12-10T03:59:31.337Z,99.10
2017-12-10T04:02:03.383Z,99.00
2017-12-10T04:04:35.994Z,98.70
2017-12-10T04:07:07.344Z,98.60
2017-12-10T04:09:39.697Z,98.80
2017-12-10T04:12:11.597Z,98.60
2017-12-10T04:14:43.309Z,98.50
2017-12-10T04:17:15.501Z,99.10
2017-12-10T04:19:46.715Z,99.10
2017-12-10T04:22:18.854Z,99.10
2017-12-10T04:24:49.857Z,99.10
2017-12-10T04:27:21.295Z,98.80
2017-12-10T04:29:52.174Z,98.80
2017-12-10T04:32:27.453Z,99.30
2017-12-10T04:35:03.409Z,97.90
2017-12-10T04:37:35.742Z,98.40
2017-12-10T04:40:06.966Z,98.00
2017-12-10T04:42:39.485Z,98.50
2017-12-10T04:45:10.753Z,97.70
2017-12-10T04:47:42.703Z,98.00
2017-12-10T04:50:16.118Z,97.80
2017-12-10T04:52:50.789Z,97.80
2017-12-10T04:55:25.621Z,98.00
2017-12-10T04:57:57.769Z,97.90
2017-12-10T05:00:28.502Z,97.60
2017-12-10T05:02:59.238Z,97.30
2017-12-10T05:05:32.662Z,97.20
2017-12-10T05:08:03.134Z,97.30
2017-12-10T05:10:33.922Z,96.90
2017-12-10T05:13:05.002Z,97.60
2017-12-10T05:15:36.872Z,96.90
2017-12-10T05:18:07.366Z,96.90
2017-12-10T05:20:38.894Z,97.00
2017-12-10T05:23:10.550Z,96.60
2017-12-10T05:25:41.005Z,96.20
2017-12-10T05:28:11.590Z,96.60
2017-12-10T05:30:42.693Z,96.70
2017-12-10T05:33:16.269Z,96.50
2017-12-10T05:35:47.599Z,96.50
2017-12-10T05:38:18.373Z,96.40
2017-12-10T05:40:50.870Z,95.30
2017-12-10T05:43:22.930Z,95.20
2017-12-10T05:45:53.444Z,95.20
2017-12-10T05:48:25.316Z,96.70
2017-12-10T05:50:57.307Z,96.80
2017-12-10T05:53:28.586Z,96.80
2017-12-10T05:55:59.073Z,96.40
2017-12-10T05:58:29.510Z,96.30
2017-12-10T06:01:00.915Z,96.30
2017-12-10T06:03:32.677Z,96.20
2017-12-10T06:06:03.166Z,96.20
2017-12-10T06:08:33.924Z,96.10
2017-12-10T06:11:04.408Z,96.20
2017-12-10T06:13:34.895Z,95.70
2017-12-10T06:16:06.352Z,96.00
2017-12-10T06:18:38.514Z,95.50
2017-12-10T06:21:10.106Z,95.50
2017-12-10T06:23:40.576Z,95.80
2017-12-10T06:26:11.066Z,95.30
2017-12-10T06:28:42.488Z,95.50
2017-12-10T06:31:12.949Z,95.00
2017-12-10T06:33:43.999Z,94.60
2017-12-10T06:36:14.461Z,94.30
2017-12-10T06:38:45.716Z,95.20
2017-12-10T06:41:16.969Z,94.60
2017-12-10T06:43:47.775Z,94.60
2017-12-10T06:46:19.478Z,94.80
2017-12-10T06:48:49.954Z,95.00
2017-12-10T06:51:20.762Z,94.80
2017-12-10T06:53:52.538Z,94.30
2017-12-10T06:56:23.332Z,94.30
2017-12-10T06:58:53.808Z,94.20
2017-12-10T07:01:24.270Z,94.20
2017-12-10T07:03:57.941Z,94.70
2017-12-10T07:06:28.397Z,94.70
2017-12-10T07:09:02.483Z,95.80
2017-12-10T07:11:34.294Z,95.80
2017-12-10T07:14:05.651Z,95.40
2017-12-10T07:16:36.929Z,95.60
2017-12-10T07:19:07.729Z,95.30
2017-12-10T07:21:38.734Z,95.80
2017-12-10T07:24:11.598Z,96.30
2017-12-10T07:26:42.370Z,96.30
2017-12-10T07:29:12.819Z,96.20
2017-12-10T07:31:43.594Z,95.80
2017-12-10T07:34:14.673Z,96.40
2017-12-10T07:36:46.125Z,96.90
2017-12-10T07:39:16.921Z,96.80
2017-12-10T07:41:47.372Z,96.80
2017-12-10T07:44:17.852Z,96.60
2017-12-10T07:46:48.660Z,96.80
2017-12-10T07:49:19.133Z,97.10
2017-12-10T07:51:50.245Z,97.20
2017-12-10T07:54:21.543Z,97.20
2017-12-10T07:56:52.044Z,97.40
2017-12-10T07:59:23.862Z,97.40
2017-12-10T08:01:54.359Z,97.40
2017-12-10T08:04:25.870Z,96.90
2017-12-10T08:06:57.332Z,96.90
2017-12-10T08:09:27.828Z,96.90
2017-12-10T08:11:58.317Z,97.20
2017-12-10T08:14:30.452Z,97.20
2017-12-10T08:17:01.224Z,97.20
2017-12-10T08:19:32.476Z,96.90
2017-12-10T08:22:04.535Z,96.90
2017-12-10T08:24:35.775Z,96.80
2017-12-10T08:27:07.960Z,96.80
2017-12-10T08:29:39.501Z,97.00
2017-12-10T08:32:10.730Z,97.00
2017-12-10T08:34:41.581Z,97.00
2017-12-10T08:37:13.647Z,97.00
2017-12-10T08:39:44.874Z,97.20
2017-12-10T08:42:15.331Z,97.20
2017-12-10T08:44:47.254Z,97.50
2017-12-10T08:47:17.758Z,97.50
2017-12-10T08:49:48.789Z,97.40
2017-12-10T08:52:20.167Z,97.40
2017-12-10T08:54:52.393Z,97.80
2017-12-10T08:57:23.752Z,97.80
2017-12-10T08:59:54.287Z,97.80
2017-12-10T09:02:25.049Z,97.80
2017-12-10T09:04:56.756Z,97.60
2017-12-10T09:07:27.524Z,97.70
2017-12-10T09:09:59.315Z,97.60
2017-12-10T09:12:29.768Z,97.60
2017-12-10T09:15:01.017Z,97.80
2017-12-10T09:17:31.526Z,97.70
2017-12-10T09:20:04.859Z,97.80
2017-12-10T09:22:36.518Z,97.80
2017-12-10T09:25:08.903Z,97.80
2017-12-10T09:27:39.792Z,98.00
2017-12-10T09:30:11.368Z,98.10
2017-12-10T09:32:41.884Z,98.10
2017-12-10T09:35:13.148Z,98.30
2017-12-10T09:37:43.929Z,98.30
2017-12-10T09:40:14.532Z,98.40
2017-12-10T09:42:45.988Z,98.30
2017-12-10T09:45:16.446Z,98.40
2017-12-10T09:47:47.236Z,98.50
2017-12-10T09:50:19.010Z,98.30
2017-12-10T09:52:50.147Z,98.40
2017-12-10T09:55:20.616Z,98.30
2017-12-10T09:57:52.934Z,98.40
2017-12-10T10:00:23.410Z,98.40
2017-12-10T10:02:53.902Z,98.60
2017-12-10T10:05:24.390Z,98.50
2017-12-10T10:07:55.633Z,98.60
2017-12-10T10:10:27.368Z,98.60
2017-12-10T10:12:58.681Z,98.60
2017-12-10T10:15:29.451Z,98.60
2017-12-10T10:17:59.913Z,98.50
2017-12-10T10:20:30.410Z,98.70
2017-12-10T10:23:02.800Z,98.90
2017-12-10T10:25:34.558Z,98.80
2017-12-10T10:28:06.391Z,98.80
2017-12-10T10:30:36.875Z,98.80
2017-12-10T10:33:07.350Z,98.80
2017-12-10T10:35:37.802Z,98.80
2017-12-10T10:38:09.352Z,99.10
2017-12-10T10:40:41.013Z,99.20
2017-12-10T10:43:12.449Z,99.20
2017-12-10T10:45:43.706Z,99.30
2017-12-10T10:48:14.941Z,99.30
2017-12-10T10:50:46.172Z,99.50
2017-12-10T10:53:16.885Z,99.50
2017-12-10T10:55:47.661Z,99.90
2017-12-10T10:58:18.903Z,99.90
2017-12-10T11:00:50.497Z,99.90
2017-12-10T11:03:20.950Z,99.90
2017-12-10T11:05:51.738Z,99.90
2017-12-10T11:08:22.179Z,99.90
2017-12-10T11:10:52.961Z,99.90
2017-12-10T11:13:23.414Z,99.90
2017-12-10T11:15:54.626Z,99.90
2017-12-10T11:18:25.391Z,99.90
2017-12-10T11:20:56.659Z,99.90
2017-12-10T11:23:27.116Z,99.90
2017-12-10T11:25:57.881Z,99.90
2017-12-10T11:28:28.591Z,99.90
2017-12-10T11:31:00.030Z,99.90
2017-12-10T11:33:30.514Z,99.90
2017-12-10T11:36:01.737Z,99.90
2017-12-10T11:38:32.209Z,99.90
2017-12-10T11:41:02.930Z,99.90
2017-12-10T11:43:36.585Z,99.90
2017-12-10T11:46:07.039Z,99.90
2017-12-10T11:48:38.269Z,99.90
2017-12-10T11:51:10.029Z,99.90
2017-12-10T11:53:41.138Z,99.90
2017-12-10T11:56:11.642Z,99.90
2017-12-10T11:58:42.505Z,99.90
2017-12-10T12:01:13.316Z,99.90
2017-12-10T12:03:43.768Z,99.90
2017-12-10T12:06:15.881Z,99.90
2017-12-10T12:08:47.116Z,99.90
2017-12-10T12:11:17.870Z,99.90
2017-12-10T12:13:49.120Z,99.90
2017-12-10T12:16:19.918Z,99.90
2017-12-10T12:18:50.402Z,99.90
2017-12-10T12:21:21.159Z,99.90
2017-12-10T12:23:51.862Z,99.90
2017-12-10T12:26:22.342Z,99.90
2017-12-10T12:28:52.912Z,99.90
2017-12-10T12:31:24.145Z,99.90
2017-12-10T12:33:55.391Z,99.90
2017-12-10T12:36:26.638Z,99.90
2017-12-10T12:38:57.891Z,99.90
2017-12-10T12:41:29.213Z,99.90
2017-12-10T12:43:59.682Z,99.90
2017-12-10T12:46:30.477Z,99.90
2017-12-10T12:49:00.945Z,99.90
2017-12-10T12:51:31.761Z,99.90
2017-12-10T12:54:03.329Z,99.90
2017-12-10T12:56:33.817Z,99.90
2017-12-10T12:59:04.525Z,99.90
2017-12-10T13:01:35.319Z,99.90
2017-12-10T13:04:05.772Z,99.90
2017-12-10T13:06:36.234Z,99.90
2017-12-10T13:09:06.920Z,99.90
2017-12-10T13:11:37.602Z,99.90
2017-12-10T13:14:08.031Z,99.90
2017-12-10T13:16:38.489Z,99.90
2017-12-10T13:19:09.698Z,99.90
2017-12-10T13:21:40.194Z,99.90
2017-12-10T13:24:10.666Z,99.90
2017-12-10T13:26:41.122Z,99.90
2017-12-10T13:29:13.009Z,99.90
2017-12-10T13:31:43.467Z,99.90
2017-12-10T13:34:13.930Z,99.90
2017-12-10T13:36:45.252Z,99.90
2017-12-10T13:39:15.709Z,99.90
2017-12-10T13:41:47.044Z,99.90
2017-12-10T13:44:18.289Z,99.90
2017-12-10T13:46:49.506Z,99.90
2017-12-10T13:49:19.966Z,99.90
2017-12-10T13:51:51.223Z,99.90
2017-12-10T13:54:22.428Z,99.90
2017-12-10T13:56:52.953Z,99.90
2017-12-10T13:59:23.726Z,99.90
2017-12-10T14:01:54.978Z,99.90
2017-12-10T14:04:26.250Z,99.90
2017-12-10T14:06:56.745Z,99.90
2017-12-10T14:09:27.991Z,99.90
2017-12-10T14:11:59.714Z,99.90
2017-12-10T14:14:30.164Z,99.90
2017-12-10T14:17:01.626Z,99.90
2017-12-10T14:19:32.900Z,99.90
2017-12-10T14:22:03.401Z,99.90
2017-12-10T14:24:34.617Z,99.90
2017-12-10T14:27:05.062Z,99.90
2017-12-10T14:29:47.556Z,99.90
2017-12-10T14:32:18.852Z,99.90
2017-12-10T14:34:49.398Z,99.90
2017-12-10T14:37:19.858Z,99.90
2017-12-10T14:39:50.343Z,99.90
2017-12-10T14:42:21.134Z,99.90
2017-12-10T14:44:52.413Z,99.90
2017-12-10T14:47:22.925Z,99.90
2017-12-10T14:49:54.237Z,99.90
2017-12-10T14:52:25.655Z,99.90
2017-12-10T14:54:56.128Z,99.90
2017-12-10T14:57:26.934Z,99.90
2017-12-10T14:59:58.034Z,99.90
2017-12-10T15:02:28.529Z,99.90
2017-12-10T15:04:59.087Z,99.90
2017-12-10T15:07:30.355Z,99.90
2017-12-10T15:10:00.893Z,99.90
2017-12-10T15:12:31.783Z,99.90
2017-12-10T15:15:03.030Z,99.90
2017-12-10T15:17:34.554Z,99.90
2017-12-10T15:20:05.061Z,99.90
2017-12-10T15:22:35.536Z,99.90
2017-12-10T15:25:06.834Z,99.90
2017-12-10T15:27:37.371Z,99.90
2017-12-10T15:30:08.035Z,99.90
2017-12-10T15:32:38.578Z,99.90
2017-12-10T15:35:10.107Z,99.90
2017-12-10T15:37:40.606Z,99.90
2017-12-10T15:40:11.057Z,99.90
2017-12-10T15:42:41.517Z,99.90
2017-12-10T15:45:12.721Z,99.90
2017-12-10T15:47:43.495Z,99.90
2017-12-10T15:50:14.741Z,99.90
2017-12-10T15:52:45.966Z,99.90
2017-12-10T15:55:16.417Z,99.90
2017-12-10T15:57:47.669Z,99.90
2017-12-10T16:00:19.440Z,99.90
2017-12-10T16:02:49.906Z,99.90
2017-12-10T16:05:20.742Z,99.90
2017-12-10T16:07:51.352Z,99.90
2017-12-10T16:10:21.805Z,99.90
2017-12-10T16:12:52.552Z,99.90
2017-12-10T16:15:23.077Z,99.90
2017-12-10T16:17:53.668Z,99.90
2017-12-10T16:20:24.137Z,99.90
2017-12-10T16:22:54.591Z,99.90
2017-12-10T16:25:25.797Z,99.90
2017-12-10T16:27:56.289Z,99.90
2017-12-10T16:30:26.753Z,99.90
2017-12-10T16:32:57.226Z,99.90
2017-12-10T16:35:28.988Z,99.90
2017-12-10T16:38:00.212Z,99.90
2017-12-10T16:40:31.430Z,99.90
2017-12-10T16:43:01.907Z,99.90
2017-12-10T16:45:32.390Z,99.90
2017-12-10T16:48:03.013Z,99.90
2017-12-10T16:50:33.510Z,99.90
2017-12-10T16:53:04.290Z,99.90
2017-12-10T16:55:34.718Z,99.90
2017-12-10T16:58:05.202Z,99.90
2017-12-10T17:00:36.011Z,99.90
2017-12-10T17:03:07.270Z,99.90
2017-12-10T17:05:38.038Z,99.90
2017-12-10T17:08:08.498Z,99.90
2017-12-10T17:10:38.976Z,99.90
2017-12-10T17:13:09.448Z,99.90
2017-12-10T17:15:39.991Z,99.90
2017-12-10T17:18:11.609Z,99.90
2017-12-10T17:20:42.087Z,99.90
2017-12-10T17:23:12.631Z,99.90
2017-12-10T17:25:43.090Z,99.90
2017-12-10T17:28:14.391Z,99.90
2017-12-10T17:30:45.586Z,99.90
2017-12-10T17:33:16.038Z,99.90
2017-12-10T17:35:46.622Z,99.90
2017-12-10T17:38:17.108Z,99.90
2017-12-10T17:40:48.356Z,99.90
2017-12-10T17:43:19.627Z,99.90
2017-12-10T17:45:50.074Z,99.90
2017-12-10T17:48:20.905Z,99.90
2017-12-10T17:50:51.338Z,99.90
2017-12-10T17:53:22.065Z,99.90
2017-12-10T17:55:52.624Z,99.90
2017-12-10T17:58:23.085Z,99.90
2017-12-10T18:00:54.331Z,99.90
2017-12-10T18:03:25.568Z,99.90
2017-12-10T18:05:57.170Z,99.90
2017-12-10T18:08:27.630Z,99.90
2017-12-10T18:10:58.077Z,99.90
2017-12-10T18:13:28.535Z,99.90
2017-12-10T18:15:59.010Z,99.90
2017-12-10T18:18:29.997Z,99.90
2017-12-10T18:21:00.449Z,99.90
2017-12-10T18:23:31.098Z,99.90
2017-12-10T18:26:01.571Z,99.90
2017-12-10T18:28:32.816Z,99.90
2017-12-10T18:31:04.038Z,99.90
2017-12-10T18:33:34.484Z,99.90
2017-12-10T18:36:06.002Z,99.90
2017-12-10T18:38:36.455Z,99.90
2017-12-10T18:41:07.700Z,99.90
2017-12-10T18:43:38.973Z,99.90
2017-12-10T18:46:09.857Z,99.90
2017-12-10T18:48:40.662Z,99.90
2017-12-10T18:51:11.127Z,99.90
2017-12-10T18:53:41.886Z,99.90
2017-12-10T18:56:13.094Z,99.90
2017-12-10T18:58:43.560Z,99.90
2017-12-10T19:01:14.780Z,99.90
2017-12-10T19:03:45.261Z,99.90
2017-12-10T19:06:16.158Z,99.90
2017-12-10T19:08:47.460Z,99.90
2017-12-10T19:11:17.920Z,99.90
2017-12-10T19:13:48.414Z,99.90
2017-12-10T19:16:18.910Z,99.90
2017-12-10T19:18:50.518Z,99.90
2017-12-10T19:21:20.997Z,99.90
2017-12-10T19:23:51.905Z,99.90
2017-12-10T19:26:22.353Z,99.90
2017-12-10T19:28:53.596Z,99.90
2017-12-10T19:31:24.793Z,99.90
2017-12-10T19:33:55.241Z,99.90
2017-12-10T19:36:26.113Z,99.90
2017-12-10T19:38:57.354Z,99.90
2017-12-10T19:41:28.587Z,99.90
2017-12-10T19:43:59.850Z,99.90
2017-12-10T19:46:30.348Z,99.90
2017-12-10T19:49:00.789Z,99.90
2017-12-10T19:51:32.005Z,99.90
2017-12-10T19:54:02.738Z,99.90
2017-12-10T19:56:33.200Z,99.90
2017-12-10T19:59:04.426Z,99.90
2017-12-10T20:01:34.850Z,99.90
2017-12-10T20:04:05.313Z,99.90
2017-12-10T20:06:37.028Z,99.90
2017-12-10T20:09:07.516Z,99.90
2017-12-10T20:11:38.288Z,99.90
2017-12-10T20:14:08.777Z,99.90
2017-12-10T20:16:39.214Z,99.90
2017-12-10T20:19:09.678Z,99.90
2017-12-10T20:21:40.136Z,99.90
2017-12-10T20:24:11.646Z,99.90
2017-12-10T20:26:42.078Z,99.90
2017-12-10T20:29:12.535Z,99.90
2017-12-10T20:31:43.748Z,99.90
2017-12-10T20:34:14.237Z,99.90
2017-12-10T20:36:45.041Z,99.90
2017-12-10T20:39:16.292Z,99.90
2017-12-10T20:41:48.059Z,99.90
2017-12-10T20:44:19.290Z,99.90
2017-12-10T20:46:50.544Z,99.90
2017-12-10T20:49:21.844Z,99.90
2017-12-10T20:51:52.311Z,99.90
2017-12-10T20:54:23.787Z,99.90
2017-12-10T20:56:54.296Z,99.90
2017-12-10T20:59:25.538Z,99.90
2017-12-10T21:01:56.730Z,99.90
2017-12-10T21:04:27.228Z,99.90
2017-12-10T21:06:57.854Z,99.90
2017-12-10T21:09:29.067Z,99.90
2017-12-10T21:11:59.889Z,99.90
2017-12-10T21:14:30.352Z,99.90
2017-12-10T21:17:01.579Z,99.90
2017-12-10T21:19:32.076Z,99.90
2017-12-10T21:22:02.577Z,99.90
2017-12-10T21:24:33.463Z,99.90
2017-12-10T21:27:03.956Z,99.90
2017-12-10T21:29:34.465Z,99.90
2017-12-10T21:32:04.940Z,99.90
2017-12-10T21:34:35.412Z,99.90
2017-12-10T21:37:06.094Z,99.90
2017-12-10T21:39:36.577Z,99.90
2017-12-10T21:42:07.254Z,99.90
2017-12-10T21:44:37.731Z,99.90
2017-12-10T21:47:08.965Z,99.90
2017-12-10T21:49:40.194Z,99.90
2017-12-10T21:52:10.632Z,99.90
2017-12-10T21:54:42.177Z,99.90
2017-12-10T21:57:12.638Z,99.90
2017-12-10T21:59:43.173Z,99.90
2017-12-10T22:02:13.644Z,99.90
2017-12-10T22:04:44.143Z,99.90
2017-12-10T22:07:14.604Z,99.90
2017-12-10T22:09:45.217Z,99.90
2017-12-10T22:12:15.978Z,99.90
2017-12-10T22:14:46.464Z,99.90
2017-12-10T22:17:16.935Z,99.90
2017-12-10T22:19:47.385Z,99.90
2017-12-10T22:22:27.564Z,99.90
2017-12-10T22:24:58.784Z,99.90
2017-12-10T22:27:29.990Z,99.90
2017-12-10T22:30:00.840Z,99.90
2017-12-10T22:32:31.266Z,99.90
2017-12-10T22:35:01.741Z,99.90
2017-12-10T22:37:32.218Z,99.90
2017-12-10T22:40:02.683Z,99.90
2017-12-10T22:42:34.153Z,99.90
2017-12-10T22:45:04.641Z,99.90
2017-12-10T22:47:35.048Z,99.90
2017-12-10T22:50:05.510Z,99.90
2017-12-10T22:52:36.733Z,99.90
2017-12-10T22:55:07.204Z,99.90
2017-12-10T22:57:37.660Z,99.90
2017-12-10T23:00:08.461Z,99.90
2017-12-10T23:02:38.939Z,99.90
2017-12-10T23:05:09.432Z,99.90
2017-12-10T23:07:39.886Z,99.90
2017-12-10T23:10:10.353Z,99.90
2017-12-10T23:12:46.750Z,99.90
2017-12-10T23:15:19.403Z,99.90
2017-12-10T23:17:50.624Z,99.90
2017-12-10T23:20:28.820Z,99.90
2017-12-10T23:22:59.272Z,99.90
2017-12-10T23:25:31.003Z,99.90
2017-12-10T23:28:01.486Z,99.90
2017-12-10T23:30:32.178Z,99.90
2017-12-10T23:33:02.660Z,99.90
2017-12-10T23:35:33.091Z,99.90
2017-12-10T23:38:03.572Z,99.90
2017-12-10T23:40:34.823Z,99.90
2017-12-10T23:43:06.024Z,99.90
2017-12-10T23:45:36.478Z,99.90
2017-12-10T23:48:07.269Z,99.90
2017-12-10T23:50:37.765Z,99.90
2017-12-10T23:53:08.993Z,99.90
2017-12-10T23:55:39.798Z,99.90
2017-12-10T23:58:10.247Z,99.90
